Time;durP1;ratioP1;P1;durP2;ratioP2;P2;SDS_P1;SDS_P2;PMS_P1;PMS_P2;Temp;Humidity;BMP_temperature;BMP_pressure;BME280_temperature;BME280_humidity;BME280_pressure;Samples;Min_cycle;Max_cycle;Signal;HPM_P1;HPM_P2
2022/09/27 00:01:43;;;;;;;0.15;0.00;;;9.80;99.90;;;;;;5053943;28;20386;-75
2022/09/27 00:04:11;;;;;;;0.17;0.00;;;9.80;99.90;;;;;;5055146;28;20492;-75
2022/09/27 00:06:36;;;;;;;1.75;0.00;;;9.80;99.90;;;;;;5055114;28;20025;-75
2022/09/27 00:09:02;;;;;;;2.15;0.00;;;9.80;99.90;;;;;;5053778;28;20021;-75
2022/09/27 00:11:37;;;;;;;3.92;0.13;;;9.90;99.90;;;;;;5055113;28;20434;-75
2022/09/27 00:14:05;;;;;;;0.85;0.00;;;10.00;99.90;;;;;;5055542;28;20031;-75
2022/09/27 00:16:34;;;;;;;4.97;0.00;;;10.00;99.90;;;;;;5053590;28;20111;-75
2022/09/27 00:19:02;;;;;;;2.10;0.00;;;10.00;99.90;;;;;;5053566;28;20538;-75
2022/09/27 00:21:29;;;;;;;1.05;0.10;;;10.00;99.90;;;;;;5054829;28;20489;-75
2022/09/27 00:23:55;;;;;;;2.15;0.00;;;9.90;99.90;;;;;;5055063;28;20029;-75
2022/09/27 00:26:21;;;;;;;1.38;0.10;;;9.90;99.90;;;;;;5055112;28;20470;-75
2022/09/27 00:28:47;;;;;;;1.65;0.00;;;9.90;99.90;;;;;;5055335;28;20155;-75
2022/09/27 00:31:39;;;;;;;1.73;0.05;;;9.90;99.90;;;;;;5054694;28;20040;-75
2022/09/27 00:34:06;;;;;;;1.13;0.00;;;9.70;99.90;;;;;;5051863;28;20052;-75
2022/09/27 00:36:32;;;;;;;0.73;0.03;;;9.60;99.90;;;;;;5054753;28;20018;-75
2022/09/27 00:38:59;;;;;;;4.20;0.40;;;9.60;99.90;;;;;;5054434;28;20037;-74
2022/09/27 00:41:31;;;;;;;1.77;0.00;;;9.50;99.90;;;;;;5054418;28;20441;-75
2022/09/27 00:44:03;;;;;;;1.45;0.00;;;9.50;99.90;;;;;;5055010;28;20025;-75
2022/09/27 00:46:41;;;;;;;4.07;0.25;;;9.40;99.90;;;;;;5054322;28;20033;-75
2022/09/27 00:49:22;;;;;;;1.55;0.00;;;9.40;99.90;;;;;;5053218;28;20021;-75
2022/09/27 00:51:52;;;;;;;3.22;0.22;;;9.30;99.90;;;;;;5055110;28;20470;-75
2022/09/27 00:54:21;;;;;;;0.38;0.20;;;9.30;99.90;;;;;;5054295;28;20029;-75
2022/09/27 00:56:48;;;;;;;2.50;0.00;;;9.20;99.90;;;;;;5054290;28;20021;-75
2022/09/27 00:59:36;;;;;;;1.27;0.35;;;9.20;99.90;;;;;;5054102;28;20097;-75
2022/09/27 01:02:05;;;;;;;2.65;0.00;;;9.10;99.90;;;;;;5053985;28;20056;-75
2022/09/27 01:04:31;;;;;;;1.67;0.00;;;9.00;99.90;;;;;;5054490;28;20082;-75
2022/09/27 01:06:58;;;;;;;0.00;0.00;;;9.00;99.90;;;;;;5052460;28;20549;-75
2022/09/27 01:09:24;;;;;;;5.32;0.00;;;8.90;99.90;;;;;;5052663;28;20029;-74
2022/09/27 01:12:14;;;;;;;2.28;0.00;;;8.90;99.90;;;;;;5052529;28;20535;-74
2022/09/27 01:15:11;;;;;;;1.75;0.00;;;8.90;99.90;;;;;;5053962;28;20021;-74
2022/09/27 01:17:49;;;;;;;1.17;0.00;;;8.90;99.90;;;;;;5053815;28;20382;-74
2022/09/27 01:20:36;;;;;;;0.20;0.00;;;8.90;99.90;;;;;;5054102;28;20110;-74
2022/09/27 01:23:32;;;;;;;2.70;0.00;;;8.90;99.90;;;;;;5053644;28;20029;-74
2022/09/27 01:26:20;;;;;;;4.45;0.00;;;8.90;99.90;;;;;;5053709;28;20024;-75
2022/09/27 01:29:07;;;;;;;0.75;0.10;;;8.90;99.90;;;;;;5052290;28;20029;-75
2022/09/27 01:32:13;;;;;;;1.55;0.00;;;9.00;99.90;;;;;;5053627;28;20032;-75
2022/09/27 01:34:44;;;;;;;1.65;0.00;;;8.90;99.90;;;;;;5025087;28;20044;-75
2022/09/27 01:37:34;;;;;;;2.30;0.05;;;8.90;99.90;;;;;;5052083;28;20044;-75
2022/09/27 01:40:23;;;;;;;1.45;0.00;;;9.00;99.90;;;;;;5053447;28;20025;-74
2022/09/27 01:42:57;;;;;;;1.25;0.43;;;9.00;99.90;;;;;;5052417;28;20017;-77
2022/09/27 01:45:31;;;;;;;0.98;0.00;;;9.00;99.90;;;;;;5052295;28;20029;-75
2022/09/27 01:48:01;;;;;;;1.77;0.00;;;8.90;99.90;;;;;;5053646;28;20027;-75
2022/09/27 01:50:36;;;;;;;4.57;0.00;;;9.00;99.90;;;;;;5053565;28;20025;-74
2022/09/27 01:53:11;;;;;;;3.35;0.38;;;9.00;99.90;;;;;;5053321;28;20025;-75
2022/09/27 01:55:38;;;;;;;0.22;0.00;;;9.00;99.90;;;;;;5052191;28;20013;-75
2022/09/27 01:58:16;;;;;;;0.45;0.00;;;8.90;99.90;;;;;;5052096;28;20017;-74
2022/09/27 02:00:44;;;;;;;;;;;8.90;99.90;;;;;;5052953;28;20478;-75
2022/09/27 02:03:24;;;;;;;2.30;0.00;;;8.80;99.90;;;;;;5053297;28;19904;-75
2022/09/27 02:05:59;;;;;;;1.80;0.03;;;8.80;99.90;;;;;;5053696;28;20029;-75
2022/09/27 02:08:33;;;;;;;2.35;0.00;;;8.70;99.90;;;;;;5053058;28;20028;-76
2022/09/27 02:11:03;;;;;;;3.72;0.00;;;8.70;99.90;;;;;;5051876;28;20036;-74
2022/09/27 02:13:59;;;;;;;1.40;0.15;;;8.60;99.90;;;;;;5053218;28;20046;-75
2022/09/27 02:16:33;;;;;;;2.42;0.00;;;8.60;99.90;;;;;;5053532;28;20501;-75
2022/09/27 02:18:58;;;;;;;3.13;0.10;;;8.60;99.90;;;;;;5054864;28;20513;-75
2022/09/27 02:21:31;;;;;;;5.43;0.00;;;8.60;99.90;;;;;;5057115;28;20029;-75
2022/09/27 02:24:02;;;;;;;1.27;0.10;;;7.20;99.90;;;;;;5055891;28;20169;-75
2022/09/27 02:26:40;;;;;;;2.55;0.40;;;8.50;99.90;;;;;;5056212;28;20049;-75
2022/09/27 02:29:24;;;;;;;7.50;0.00;;;8.50;99.90;;;;;;5057235;28;20075;-75
2022/09/27 02:31:50;;;;;;;6.10;0.45;;;8.40;99.90;;;;;;5057447;28;20466;-75
2022/09/27 02:34:21;;;;;;;4.18;0.00;;;8.40;99.90;;;;;;5057438;28;20027;-74
2022/09/27 02:36:47;;;;;;;1.63;0.00;;;8.50;99.90;;;;;;5057106;28;20013;-74
2022/09/27 02:39:13;;;;;;;1.85;0.00;;;8.50;99.90;;;;;;5055536;28;20025;-75
2022/09/27 02:41:38;;;;;;;2.25;0.00;;;8.40;99.90;;;;;;5056952;28;20123;-75
2022/09/27 02:44:08;;;;;;;1.17;0.00;;;8.40;99.90;;;;;;5056771;28;20025;-75
2022/09/27 02:47:04;;;;;;;1.00;0.10;;;8.40;99.90;;;;;;5056783;28;20533;-75
2022/09/27 02:49:56;;;;;;;1.52;0.15;;;8.30;99.90;;;;;;5055320;28;20025;-75
2022/09/27 02:53:06;;;;;;;4.28;0.05;;;8.30;99.90;;;;;;5029291;28;20037;-75
2022/09/27 02:55:43;;;;;;;2.08;0.10;;;8.20;99.90;;;;;;4978868;28;20018;-75
2022/09/27 02:58:25;;;;;;;4.10;0.00;;;8.20;99.90;;;;;;4978857;28;20023;-75
2022/09/27 03:01:04;;;;;;;1.13;0.00;;;8.20;99.90;;;;;;5029564;28;20029;-75
2022/09/27 03:03:45;;;;;;;2.35;0.55;;;8.20;99.90;;;;;;5057055;28;20474;-74
2022/09/27 03:06:15;;;;;;;2.40;0.03;;;8.20;99.90;;;;;;5056609;28;20039;-74
2022/09/27 03:08:42;;;;;;;2.20;0.00;;;8.20;99.90;;;;;;5056348;28;20490;-74
2022/09/27 03:11:07;;;;;;;2.20;0.03;;;8.30;99.90;;;;;;5056257;28;20096;-74
2022/09/27 03:13:35;;;;;;;2.60;0.00;;;8.30;99.90;;;;;;5055032;28;20470;-75
2022/09/27 03:16:01;;;;;;;2.72;0.00;;;8.50;99.90;;;;;;5056173;28;20104;-75
2022/09/27 03:18:26;;;;;;;5.40;0.10;;;8.40;99.90;;;;;;5055870;28;20075;-75
2022/09/27 03:20:53;;;;;;;1.48;0.00;;;8.50;99.90;;;;;;5056249;28;20017;-75
2022/09/27 03:23:19;;;;;;;5.60;0.22;;;8.60;99.90;;;;;;5054859;28;20091;-74
2022/09/27 03:25:45;;;;;;;1.35;0.17;;;8.70;99.90;;;;;;5056399;28;20033;-76
2022/09/27 03:28:11;;;;;;;3.00;0.10;;;8.80;99.90;;;;;;5056043;28;20086;-74
2022/09/27 03:30:37;;;;;;;7.07;0.10;;;8.80;99.90;;;;;;5055845;28;20027;-76
2022/09/27 03:33:03;;;;;;;6.10;0.10;;;8.90;99.90;;;;;;5054542;28;20021;-75
2022/09/27 03:35:29;;;;;;;3.22;0.00;;;8.90;99.90;;;;;;5055778;28;20371;-75
2022/09/27 03:37:54;;;;;;;3.10;0.00;;;8.90;99.90;;;;;;5055670;28;20029;-75
2022/09/27 03:40:20;;;;;;;5.78;0.28;;;8.90;99.90;;;;;;5055960;28;20355;-74
2022/09/27 03:42:48;;;;;;;1.73;0.00;;;8.80;99.90;;;;;;5055915;28;20485;-75
2022/09/27 03:45:14;;;;;;;1.70;0.03;;;8.70;99.90;;;;;;5054288;28;20025;-75
2022/09/27 03:47:40;;;;;;;0.70;0.00;;;8.70;99.90;;;;;;5055707;28;20267;-75
2022/09/27 03:50:07;;;;;;;0.40;0.00;;;8.70;99.90;;;;;;5054875;28;20032;-75
2022/09/27 03:52:33;;;;;;;1.35;0.00;;;8.70;99.90;;;;;;5054193;28;20060;-75
2022/09/27 03:54:59;;;;;;;2.15;0.00;;;8.60;99.90;;;;;;5055386;28;20025;-75
2022/09/27 03:57:25;;;;;;;1.80;0.00;;;8.60;99.90;;;;;;5055234;28;20024;-75
2022/09/27 03:59:51;;;;;;;4.20;0.30;;;8.60;99.90;;;;;;5055538;28;20535;-75
2022/09/27 04:02:17;;;;;;;5.90;0.65;;;8.50;99.90;;;;;;5055895;28;20104;-75
2022/09/27 04:04:43;;;;;;;6.22;0.00;;;8.50;99.90;;;;;;5055318;28;20482;-75
2022/09/27 04:07:09;;;;;;;5.45;0.00;;;8.50;99.90;;;;;;5053889;28;20028;-74
2022/09/27 04:09:36;;;;;;;7.30;0.10;;;8.40;99.90;;;;;;5053883;28;20096;-75
2022/09/27 04:12:03;;;;;;;2.15;0.45;;;8.50;99.90;;;;;;5053761;28;20036;-75
2022/09/27 04:14:28;;;;;;;2.05;0.00;;;8.50;99.90;;;;;;5053830;28;20031;-75
2022/09/27 04:16:54;;;;;;;7.88;0.55;;;8.40;99.90;;;;;;5054809;28;20100;-75
2022/09/27 04:19:20;;;;;;;3.53;0.00;;;8.50;99.90;;;;;;5054727;28;20075;-74
2022/09/27 04:21:46;;;;;;;2.50;0.00;;;8.50;99.90;;;;;;5055432;28;20013;-74
2022/09/27 04:24:12;;;;;;;4.15;0.50;;;8.50;99.90;;;;;;5055256;28;20029;-74
2022/09/27 04:26:38;;;;;;;1.02;0.00;;;8.60;99.90;;;;;;5054814;28;20025;-74
2022/09/27 04:29:04;;;;;;;0.70;0.00;;;8.50;99.90;;;;;;5054737;28;20104;-75
2022/09/27 04:31:30;;;;;;;3.85;0.00;;;8.50;99.90;;;;;;5054798;28;20105;-75
2022/09/27 04:33:57;;;;;;;4.45;0.20;;;8.50;99.90;;;;;;5053435;28;20024;-75
2022/09/27 04:36:27;;;;;;;3.05;0.00;;;8.50;99.90;;;;;;5054604;28;20105;-74
2022/09/27 04:38:55;;;;;;;6.65;0.00;;;8.40;99.90;;;;;;5054672;28;20049;-75
2022/09/27 04:41:22;;;;;;;1.55;0.00;;;8.40;99.90;;;;;;5054131;28;20497;-75
2022/09/27 04:43:49;;;;;;;5.05;0.00;;;8.40;99.90;;;;;;5053233;28;20066;-75
2022/09/27 04:46:15;;;;;;;4.32;0.00;;;8.40;99.90;;;;;;5054974;28;20033;-74
2022/09/27 04:48:40;;;;;;;6.30;0.00;;;8.40;99.90;;;;;;5054514;28;20474;-74
2022/09/27 04:51:06;;;;;;;4.22;0.55;;;8.40;99.90;;;;;;5054386;28;20033;-74
2022/09/27 04:53:32;;;;;;;4.35;0.05;;;8.40;99.90;;;;;;5053200;28;20025;-74
2022/09/27 04:56:04;;;;;;;4.72;0.25;;;8.50;99.90;;;;;;5054408;28;20013;-74
2022/09/27 04:58:32;;;;;;;2.50;0.00;;;8.50;99.90;;;;;;5053962;28;20032;-75
2022/09/27 05:00:58;;;;;;;1.45;0.10;;;8.50;99.90;;;;;;5053093;28;20025;-74
2022/09/27 05:03:23;;;;;;;1.08;0.00;;;8.50;99.90;;;;;;5054295;28;20196;-74
2022/09/27 05:05:49;;;;;;;3.60;0.00;;;8.50;99.90;;;;;;5054124;28;20025;-74
2022/09/27 05:08:15;;;;;;;3.55;0.93;;;8.50;99.90;;;;;;5053908;28;20509;-74
2022/09/27 05:10:41;;;;;;;1.98;0.00;;;8.50;99.90;;;;;;5054427;28;20417;-74
2022/09/27 05:13:06;;;;;;;0.75;0.00;;;8.50;99.90;;;;;;5054196;28;20025;-75
2022/09/27 05:15:33;;;;;;;4.22;0.75;;;8.50;99.90;;;;;;5052771;28;20039;-75
2022/09/27 05:18:06;;;;;;;2.47;0.17;;;8.50;99.90;;;;;;5069475;22;20032;-89
2022/09/27 05:20:31;;;;;;;0.38;0.00;;;8.70;99.90;;;;;;5067557;28;20093;-88
2022/09/27 05:22:57;;;;;;;2.72;0.00;;;10.90;99.90;;;;;;5066823;28;20041;-90
2022/09/27 05:25:23;;;;;;;3.80;0.40;;;8.00;99.90;;;;;;5065883;28;20017;-88
2022/09/27 05:27:50;;;;;;;5.45;0.43;;;8.60;99.90;;;;;;5065242;28;20047;-86
2022/09/27 05:30:16;;;;;;;5.53;0.22;;;11.80;99.90;;;;;;5066537;28;20026;-87
2022/09/27 05:32:42;;;;;;;7.00;0.38;;;8.80;99.90;;;;;;5068048;28;20025;-88
2022/09/27 05:35:09;;;;;;;0.73;0.00;;;8.70;99.90;;;;;;5068605;28;20036;-87
2022/09/27 05:37:35;;;;;;;3.40;0.22;;;8.70;99.90;;;;;;5066663;28;20021;-87
2022/09/27 05:40:02;;;;;;;1.45;0.10;;;8.60;99.90;;;;;;5067633;28;20043;-87
2022/09/27 05:42:27;;;;;;;0.77;0.17;;;9.70;99.90;;;;;;5066336;28;20029;-88
2022/09/27 05:44:53;;;;;;;1.00;0.00;;;8.60;99.90;;;;;;5071878;28;20036;-87
2022/09/27 05:47:19;;;;;;;5.63;0.47;;;7.00;99.90;;;;;;5065735;28;20017;-88
2022/09/27 05:49:52;;;;;;;5.32;0.00;;;8.80;99.90;;;;;;5065905;28;20094;-87
2022/09/27 05:52:21;;;;;;;4.90;0.30;;;8.50;99.90;;;;;;5064869;28;20032;-87
2022/09/27 05:54:46;;;;;;;6.95;0.65;;;6.60;99.90;;;;;;5063716;28;20045;-88
2022/09/27 05:57:55;;;;;;;4.43;0.10;;;9.20;99.90;;;;;;5064420;28;20018;-87
2022/09/27 06:00:24;;;;;;;2.33;0.00;;;9.10;99.90;;;;;;5063486;28;20020;-88
2022/09/27 06:03:05;;;;;;;2.42;0.08;;;11.50;99.90;;;;;;5064378;28;20116;-87
2022/09/27 06:05:35;;;;;;;0.65;0.00;;;9.00;99.90;;;;;;5061168;28;20025;-86
2022/09/27 06:08:04;;;;;;;1.80;0.10;;;11.60;99.90;;;;;;5056962;28;20096;-88
2022/09/27 06:10:30;;;;;;;;;;;8.30;99.90;;;;;;5058471;28;20036;-86
2022/09/27 06:13:22;;;;;;;1.95;0.05;;;8.90;99.90;;;;;;5058511;28;19909;-86
2022/09/27 06:15:59;;;;;;;0.45;0.00;;;9.00;99.90;;;;;;5054614;28;20037;-86
2022/09/27 06:18:45;;;;;;;4.30;0.00;;;9.20;99.90;;;;;;5060262;28;20377;-87
2022/09/27 06:21:12;;;;;;;3.20;0.00;;;9.00;99.90;;;;;;5056991;28;20055;-87
2022/09/27 06:23:39;;;;;;;0.68;0.00;;;12.00;99.90;;;;;;5057665;28;20025;-87
2022/09/27 06:26:06;;;;;;;3.88;0.10;;;9.00;99.90;;;;;;5058380;28;20033;-87
2022/09/27 06:28:34;;;;;;;3.03;0.52;;;10.00;99.90;;;;;;5059376;28;20025;-87
2022/09/27 06:31:02;;;;;;;2.20;0.10;;;8.40;99.90;;;;;;5057864;28;20029;-88
2022/09/27 06:33:31;;;;;;;4.68;0.05;;;7.90;99.90;;;;;;5057645;28;20029;-88
2022/09/27 06:35:59;;;;;;;;;;;9.90;99.90;;;;;;5059229;28;20021;-88
2022/09/27 06:38:25;;;;;;;3.65;0.22;;;10.40;99.90;;;;;;5056561;28;19904;-87
2022/09/27 06:40:51;;;;;;;5.80;0.40;;;12.00;99.90;;;;;;5057039;28;20025;-87
2022/09/27 06:43:19;;;;;;;5.30;0.55;;;9.20;99.90;;;;;;5058222;28;20017;-87
2022/09/27 06:45:46;;;;;;;5.45;0.00;;;9.00;99.90;;;;;;5056745;28;20053;-87
2022/09/27 06:48:16;;;;;;;1.40;0.10;;;9.50;99.90;;;;;;5057494;28;20021;-88
2022/09/27 06:50:43;;;;;;;4.35;0.43;;;11.40;99.90;;;;;;5057787;28;20037;-86
2022/09/27 06:53:15;;;;;;;6.05;0.45;;;9.30;99.90;;;;;;5058603;28;20021;-86
2022/09/27 06:55:44;;;;;;;2.67;0.15;;;9.40;99.90;;;;;;5057756;28;20025;-87
2022/09/27 07:01:01;;;;;;;0.57;0.00;;;12.60;99.90;;;;;;5058831;28;20032;-87
2022/09/27 07:03:30;;;;;;;3.90;0.00;;;9.50;99.90;;;;;;5057721;28;20032;-88
2022/09/27 07:06:01;;;;;;;4.00;0.10;;;11.90;99.90;;;;;;5060954;28;20033;-89
2022/09/27 07:08:28;;;;;;;3.47;0.10;;;12.20;99.90;;;;;;5060998;28;20038;-87
2022/09/27 07:10:56;;;;;;;3.83;0.00;;;9.80;99.90;;;;;;5064016;28;20025;-86
2022/09/27 07:13:22;;;;;;;5.53;0.00;;;9.00;99.90;;;;;;5064155;28;20036;-87
2022/09/27 07:15:52;;;;;;;2.40;0.00;;;10.00;99.90;;;;;;5063719;28;20013;-87
2022/09/27 07:18:19;;;;;;;2.10;0.10;;;10.20;99.90;;;;;;5064410;28;20025;-86
2022/09/27 07:20:45;;;;;;;3.92;0.28;;;12.10;99.90;;;;;;5061816;28;20092;-88
2022/09/27 07:23:11;;;;;;;5.95;0.68;;;13.10;99.90;;;;;;5059664;28;20387;-87
2022/09/27 07:26:05;;;;;;;2.95;0.00;;;13.10;99.90;;;;;;5059378;28;20457;-87
2022/09/27 07:28:31;;;;;;;1.38;0.00;;;10.40;99.90;;;;;;5058676;28;20057;-87
2022/09/27 07:30:57;;;;;;;1.95;0.00;;;10.30;99.90;;;;;;5060070;28;20021;-87
2022/09/27 07:33:23;;;;;;;1.55;0.00;;;11.90;99.90;;;;;;5058827;28;20036;-87
2022/09/27 07:35:55;;;;;;;3.33;0.00;;;11.90;99.90;;;;;;5058853;28;20021;-87
2022/09/27 07:38:24;;;;;;;1.38;0.10;;;10.90;99.90;;;;;;5058026;28;20429;-88
2022/09/27 07:40:53;;;;;;;4.95;0.00;;;10.40;99.90;;;;;;5058457;28;20021;-88
2022/09/27 07:43:21;;;;;;;;;;;10.50;99.90;;;;;;5060519;28;20479;-87
2022/09/27 07:45:49;;;;;;;0.97;0.00;;;10.80;99.90;;;;;;5058335;28;19912;-86
2022/09/27 07:48:21;;;;;;;3.13;0.00;;;10.50;99.90;;;;;;5059670;28;20032;-88
2022/09/27 07:50:47;;;;;;;3.63;0.32;;;11.40;99.90;;;;;;5058651;28;20067;-87
2022/09/27 07:53:13;;;;;;;5.43;0.20;;;9.60;99.90;;;;;;5058136;28;20029;-89
2022/09/27 07:55:40;;;;;;;1.85;0.00;;;9.90;99.90;;;;;;5058333;28;20021;-87
2022/09/27 07:58:10;;;;;;;7.65;0.08;;;10.20;99.90;;;;;;5058123;28;20394;-87
2022/09/27 08:00:39;;;;;;;3.15;0.00;;;10.50;99.90;;;;;;5058243;28;20024;-88
2022/09/27 08:03:16;;;;;;;0.10;0.00;;;10.40;99.90;;;;;;5058009;28;20037;-86
2022/09/27 08:05:43;;;;;;;4.22;0.57;;;10.40;99.90;;;;;;5058816;28;20029;-87
2022/09/27 08:08:09;;;;;;;0.73;0.00;;;10.10;99.90;;;;;;5057803;28;20036;-87
2022/09/27 08:10:35;;;;;;;2.53;0.00;;;12.10;99.90;;;;;;5059552;28;20385;-86
2022/09/27 08:13:02;;;;;;;4.30;0.20;;;13.20;99.90;;;;;;5057744;28;20104;-87
2022/09/27 08:15:34;;;;;;;2.90;0.00;;;11.00;99.90;;;;;;5057881;28;20095;-87
2022/09/27 08:18:03;;;;;;;3.38;0.43;;;11.20;99.90;;;;;;5057535;28;20056;-88
2022/09/27 08:20:29;;;;;;;3.05;0.03;;;9.50;99.90;;;;;;5057893;28;20049;-88
2022/09/27 08:22:58;;;;;;;3.50;0.00;;;9.70;99.90;;;;;;5059079;28;20069;-88
2022/09/27 08:25:24;;;;;;;3.05;0.05;;;10.30;99.90;;;;;;5057492;28;20115;-86
2022/09/27 08:27:58;;;;;;;1.90;0.00;;;12.70;99.90;;;;;;5057342;28;20448;-87
2022/09/27 08:30:30;;;;;;;2.10;0.00;;;12.20;99.90;;;;;;5059099;28;20025;-88
2022/09/27 08:33:02;;;;;;;3.45;0.38;;;10.10;99.90;;;;;;5057236;28;20029;-88
2022/09/27 08:35:37;;;;;;;2.50;0.00;;;12.80;99.90;;;;;;5056965;28;20033;-89
2022/09/27 08:38:06;;;;;;;4.13;0.00;;;11.70;99.90;;;;;;5058616;28;20017;-90
2022/09/27 08:40:53;;;;;;;5.38;0.00;;;13.10;99.90;;;;;;5056944;28;20128;-90
2022/09/27 08:43:46;;;;;;;6.25;1.35;;;11.80;99.90;;;;;;5057242;28;20029;-90
2022/09/27 08:46:45;;;;;;;0.70;0.00;;;9.90;99.90;;;;;;5062198;23;20088;-75
2022/09/27 08:49:24;;;;;;;2.65;0.10;;;9.80;99.90;;;;;;5053162;28;20021;-75
2022/09/27 08:51:54;;;;;;;4.75;0.10;;;9.70;99.90;;;;;;5053522;28;20029;-75
2022/09/27 08:54:28;;;;;;;3.35;0.10;;;9.70;99.90;;;;;;5054049;28;20063;-75
2022/09/27 08:57:02;;;;;;;4.40;0.20;;;9.80;99.90;;;;;;5052912;28;20024;-75
2022/09/27 08:59:35;;;;;;;5.15;0.55;;;9.80;99.90;;;;;;5054152;28;20021;-75
2022/09/27 09:02:02;;;;;;;4.68;0.00;;;9.70;99.90;;;;;;5054289;28;20377;-75
2022/09/27 09:04:35;;;;;;;1.77;0.00;;;9.70;99.90;;;;;;5054218;28;20024;-75
2022/09/27 09:07:28;;;;;;;3.33;0.00;;;9.70;99.90;;;;;;5054052;28;20025;-75
2022/09/27 09:13:31;;;;;;;1.02;0.00;;;9.80;99.90;;;;;;5022643;28;20469;-75
2022/09/27 09:16:25;;;;;;;2.67;0.32;;;9.90;99.90;;;;;;5053811;28;20064;-75
2022/09/27 09:18:50;;;;;;;2.28;0.00;;;9.90;99.90;;;;;;5053526;28;20079;-75
2022/09/27 09:21:54;;;;;;;1.92;0.00;;;9.90;99.90;;;;;;5053580;28;20067;-75
2022/09/27 09:24:32;;;;;;;0.55;0.00;;;9.80;99.90;;;;;;5053399;28;20031;-75
2022/09/27 09:27:19;;;;;;;1.38;0.08;;;9.80;99.90;;;;;;5053342;28;20104;-75
2022/09/27 09:30:18;;;;;;;2.53;0.00;;;9.90;99.90;;;;;;5052134;28;20032;-75
2022/09/27 09:33:21;;;;;;;0.85;0.00;;;10.00;99.90;;;;;;5052189;28;20045;-75
2022/09/27 09:36:09;;;;;;;2.63;0.00;;;10.10;99.90;;;;;;5052067;28;20017;-75
2022/09/27 09:38:46;;;;;;;1.02;0.00;;;10.20;99.90;;;;;;5053630;28;20382;-75
2022/09/27 09:41:35;;;;;;;0.08;0.00;;;10.30;99.90;;;;;;5053657;28;20025;-76
2022/09/27 09:44:09;;;;;;;1.58;0.10;;;10.30;99.90;;;;;;5053150;28;20025;-75
2022/09/27 09:46:39;;;;;;;0.55;0.00;;;10.40;99.90;;;;;;5052991;28;20043;-75
2022/09/27 09:49:26;;;;;;;0.30;0.15;;;10.50;99.90;;;;;;5051733;28;20094;-75
2022/09/27 09:52:00;;;;;;;1.25;0.00;;;12.20;99.90;;;;;;5053140;28;20017;-74
2022/09/27 09:54:34;;;;;;;3.65;0.00;;;10.50;99.90;;;;;;5053153;28;20025;-74
2022/09/27 09:57:11;;;;;;;1.75;0.15;;;10.80;99.90;;;;;;5053194;28;20025;-74
2022/09/27 09:59:44;;;;;;;5.30;0.00;;;10.60;99.90;;;;;;5053351;28;20040;-74
2022/09/27 10:02:29;;;;;;;1.35;0.00;;;10.70;99.90;;;;;;5051732;28;20041;-74
2022/09/27 10:05:04;;;;;;;;;;;;;;;;;;;;;
2022/09/27 10:07:32;;;;;;;4.15;0.03;;;10.50;99.90;;;;;;5053259;28;20103;-74
2022/09/27 10:10:03;;;;;;;10.57;0.20;;;10.30;99.90;;;;;;5051684;28;20025;-74
2022/09/27 10:12:30;;;;;;;2.42;0.00;;;10.40;99.90;;;;;;5051663;28;20394;-74
2022/09/27 10:15:02;;;;;;;1.95;0.30;;;10.40;99.90;;;;;;5052930;28;20033;-74
2022/09/27 10:17:36;;;;;;;3.72;0.40;;;10.70;99.90;;;;;;5051436;28;20091;-74
2022/09/27 10:20:05;;;;;;;2.63;0.00;;;10.60;99.90;;;;;;5052941;28;20367;-74
2022/09/27 10:22:37;;;;;;;;;;;10.70;99.90;;;;;;5053509;28;20035;-74
2022/09/27 10:25:07;;;;;;;2.60;0.10;;;10.90;99.90;;;;;;5052977;28;19991;-74
2022/09/27 10:27:42;;;;;;;2.13;0.00;;;11.10;99.90;;;;;;5052194;28;20112;-74
2022/09/27 10:30:23;;;;;;;2.65;0.00;;;11.30;99.90;;;;;;5052069;28;20097;-74
2022/09/27 10:32:52;;;;;;;3.33;0.10;;;11.40;99.90;;;;;;5053266;28;20390;-74
2022/09/27 10:35:34;;;;;;;2.95;0.00;;;11.60;99.90;;;;;;5053397;28;20025;-74
2022/09/27 10:38:20;;;;;;;4.43;0.00;;;11.60;99.90;;;;;;5053211;28;20052;-74
2022/09/27 10:40:48;;;;;;;3.28;0.43;;;11.60;99.90;;;;;;5055509;28;20024;-74
2022/09/27 10:43:32;;;;;;;1.33;0.00;;;11.50;99.90;;;;;;5057104;28;20021;-74
2022/09/27 10:46:15;;;;;;;1.33;0.10;;;11.50;99.90;;;;;;5057078;28;20093;-74
2022/09/27 10:49:13;;;;;;;4.50;0.32;;;11.30;99.90;;;;;;5057714;28;20025;-74
2022/09/27 10:51:42;;;;;;;0.38;0.13;;;11.30;99.90;;;;;;5057000;28;20025;-74
2022/09/27 10:54:30;;;;;;;3.00;0.00;;;11.20;99.90;;;;;;5057486;28;20021;-74
2022/09/27 10:57:12;;;;;;;1.75;0.25;;;11.20;99.90;;;;;;5057250;28;20032;-74
2022/09/27 10:59:41;;;;;;;1.67;0.45;;;11.20;99.90;;;;;;5055845;28;20108;-74
2022/09/27 11:02:25;;;;;;;;;;;11.10;99.90;;;;;;5057595;28;20474;-75
2022/09/27 11:05:28;;;;;;;3.22;0.52;;;11.00;99.90;;;;;;5057051;28;20381;-74
2022/09/27 11:07:59;;;;;;;0.32;0.00;;;10.90;99.90;;;;;;5055695;28;20119;-74
2022/09/27 11:10:33;;;;;;;1.25;0.00;;;10.80;99.90;;;;;;5055647;28;20025;-75
2022/09/27 11:13:19;;;;;;;1.95;0.00;;;10.80;99.90;;;;;;5056992;28;20029;-74
2022/09/27 11:16:21;;;;;;;1.30;0.03;;;10.70;99.90;;;;;;5055476;28;20032;-75
2022/09/27 11:19:00;;;;;;;2.17;0.00;;;10.80;99.90;;;;;;5055393;28;20477;-75
2022/09/27 11:21:25;;;;;;;0.15;0.00;;;10.90;99.90;;;;;;5055322;28;20110;-75
2022/09/27 12:20:32;;;;;;;1.02;0.17;;;9.60;99.90;;;;;;5131551;27;20386;-76
2022/09/27 12:23:02;;;;;;;1.27;0.00;;;9.30;99.90;;;;;;5131550;28;20025;-74
2022/09/27 12:25:33;;;;;;;4.40;0.00;;;9.30;99.90;;;;;;5131441;27;20028;-75
2022/09/27 12:28:11;;;;;;;0.38;0.00;;;9.30;99.90;;;;;;5131932;27;20106;-72
2022/09/27 12:30:40;;;;;;;3.90;0.00;;;9.30;99.90;;;;;;5131879;27;20090;-74
2022/09/27 12:33:24;;;;;;;2.17;0.30;;;9.30;99.90;;;;;;5131883;27;20023;-75
2022/09/27 12:35:53;;;;;;;4.30;0.47;;;9.30;99.90;;;;;;5175292;22;20048;-75
2022/09/27 12:38:32;;;;;;;1.60;0.00;;;9.30;99.90;;;;;;5111153;28;20032;-74
2022/09/27 12:41:00;;;;;;;0.00;0.00;;;9.40;99.90;;;;;;5109939;28;20024;-75
2022/09/27 12:43:32;;;;;;;1.85;0.00;;;9.40;99.90;;;;;;5111442;28;20020;-75
2022/09/27 12:46:30;;;;;;;1.25;0.00;;;9.50;99.90;;;;;;5111795;28;20028;-74
2022/09/27 12:49:18;;;;;;;1.60;0.00;;;9.60;99.90;;;;;;5109503;28;20031;-76
2022/09/27 12:52:06;;;;;;;3.63;0.60;;;9.60;99.90;;;;;;5111141;28;20056;-76
2022/09/27 12:55:08;;;;;;;2.17;0.00;;;9.80;99.90;;;;;;5110944;28;20394;-74
2022/09/27 12:57:40;;;;;;;0.50;0.00;;;9.90;99.90;;;;;;5110823;28;20111;-74
2022/09/27 13:00:37;;;;;;;2.00;0.00;;;10.00;99.90;;;;;;5110698;28;20386;-75
2022/09/27 13:03:26;;;;;;;2.08;0.10;;;10.10;99.90;;;;;;5109292;28;20471;-76
2022/09/27 13:06:12;;;;;;;3.22;0.00;;;10.20;99.90;;;;;;5109500;28;20026;-76
2022/09/27 13:09:42;;;;;;;2.92;0.08;;;10.40;99.90;;;;;;5110180;28;20393;-76
2022/09/27 13:12:12;;;;;;;1.13;0.00;;;10.50;99.90;;;;;;5045713;28;20036;-77
2022/09/27 13:14:50;;;;;;;0.45;0.10;;;10.80;99.90;;;;;;5110593;28;20172;-77
2022/09/27 13:17:52;;;;;;;0.00;0.00;;;10.90;99.90;;;;;;5108932;28;20032;-76
2022/09/27 13:20:26;;;;;;;0.65;0.05;;;11.10;99.90;;;;;;5102690;28;20020;-77
2022/09/27 13:22:53;;;;;;;0.13;0.00;;;11.30;99.90;;;;;;5095494;28;20033;-77
2022/09/27 13:25:51;;;;;;;2.03;0.00;;;11.50;99.90;;;;;;5096472;28;20027;-77
2022/09/27 13:28:31;;;;;;;2.10;0.35;;;11.70;99.90;;;;;;5095875;28;20028;-77
2022/09/27 13:30:59;;;;;;;1.08;0.00;;;11.90;99.90;;;;;;5096668;28;20059;-77
2022/09/27 13:33:40;;;;;;;3.10;0.00;;;12.40;99.90;;;;;;5096834;28;20130;-77
2022/09/27 13:36:20;;;;;;;2.95;0.00;;;13.30;99.90;;;;;;5095015;28;20032;-77
2022/09/27 13:39:02;;;;;;;0.90;0.00;;;14.10;99.90;;;;;;5096265;28;20088;-76
2022/09/27 13:41:47;;;;;;;0.25;0.00;;;14.70;99.90;;;;;;5095015;28;20032;-77
2022/09/27 13:44:32;;;;;;;0.52;0.00;;;15.20;99.90;;;;;;5096322;28;20478;-77
2022/09/27 13:47:00;;;;;;;0.98;0.30;;;15.60;99.90;;;;;;5095927;28;20107;-76
2022/09/27 13:49:40;;;;;;;1.17;0.00;;;15.70;99.90;;;;;;5095985;28;20028;-75
2022/09/27 13:52:26;;;;;;;3.30;0.30;;;15.70;99.90;;;;;;5083606;28;20020;-76
2022/09/27 13:54:54;;;;;;;0.55;0.00;;;15.50;99.90;;;;;;5074034;28;20036;-75
2022/09/27 13:57:42;;;;;;;1.23;0.00;;;15.30;99.90;;;;;;5075818;28;20470;-76
2022/09/27 14:00:15;;;;;;;0.50;0.00;;;14.90;99.90;;;;;;5075473;28;20044;-77
2022/09/27 14:03:02;;;;;;;3.70;0.25;;;14.40;99.90;;;;;;5072789;28;20266;-76
2022/09/27 14:05:37;;;;;;;1.10;0.00;;;14.20;99.90;;;;;;5072819;28;20372;-76
2022/09/27 14:08:06;;;;;;;2.25;0.17;;;13.90;99.90;;;;;;5075271;28;20480;-76
2022/09/27 14:10:33;;;;;;;0.80;0.00;;;13.60;99.90;;;;;;5075243;28;20048;-76
2022/09/27 14:13:02;;;;;;;1.48;0.38;;;13.40;99.90;;;;;;5073764;28;20269;-76
2022/09/27 14:15:30;;;;;;;0.03;0.00;;;13.10;99.90;;;;;;5075147;28;20538;-76
2022/09/27 14:17:56;;;;;;;1.95;0.00;;;12.80;99.90;;;;;;5075107;28;20110;-75
2022/09/27 14:20:33;;;;;;;2.78;0.32;;;12.50;99.90;;;;;;5075537;28;20024;-75
2022/09/27 14:23:00;;;;;;;1.42;0.00;;;12.20;99.90;;;;;;5073704;28;20029;-75
2022/09/27 14:25:25;;;;;;;0.65;0.10;;;12.10;99.90;;;;;;5075017;28;20028;-75
2022/09/27 14:27:51;;;;;;;0.90;0.00;;;12.10;99.90;;;;;;5073900;28;20074;-75
2022/09/27 14:30:20;;;;;;;1.55;0.00;;;12.10;99.90;;;;;;5075154;28;20467;-75
2022/09/27 14:32:53;;;;;;;4.35;0.22;;;12.10;99.90;;;;;;5073923;28;20020;-75